createdAt,value
2023-03-26T00:01:36.841Z,96298.00
2023-03-26T00:04:06.779Z,96298.26
2023-03-26T00:06:39.012Z,96294.38
2023-03-26T00:09:09.214Z,96293.52
2023-03-26T00:11:38.178Z,96290.89
2023-03-26T00:14:06.608Z,96290.73
2023-03-26T00:16:35.416Z,96285.49
2023-03-26T00:19:04.457Z,96282.59
2023-03-26T00:21:33.925Z,96285.64
2023-03-26T00:24:07.052Z,96285.59
2023-03-26T00:26:37.706Z,96289.66
2023-03-26T00:29:06.968Z,96292.06
2023-03-26T00:31:37.987Z,96291.03
2023-03-26T00:34:07.153Z,96287.90
2023-03-26T00:36:36.165Z,96292.83
2023-03-26T00:39:05.927Z,96292.08
2023-03-26T00:41:37.401Z,96287.30
2023-03-26T00:44:06.271Z,96290.77
2023-03-26T00:46:34.932Z,96300.33
2023-03-26T00:49:04.200Z,96294.56
2023-03-26T00:51:33.988Z,96297.13
2023-03-26T00:54:02.514Z,96300.27
2023-03-26T00:56:31.720Z,96303.46
2023-03-26T00:59:00.562Z,96306.66
2023-03-26T01:01:29.264Z,96307.63
2023-03-26T01:06:36.749Z,96308.60
2023-03-26T01:09:13.480Z,96306.52
2023-03-26T01:11:42.318Z,96305.09
2023-03-26T01:14:11.836Z,96311.83
2023-03-26T01:16:45.263Z,96310.64
2023-03-26T01:19:39.754Z,96309.30
2023-03-26T01:22:11.284Z,96305.81
2023-03-26T01:24:40.685Z,96302.60
2023-03-26T01:27:12.187Z,96301.91
2023-03-26T01:30:07.275Z,96302.38
2023-03-26T01:32:55.851Z,96304.24
2023-03-26T01:35:30.716Z,96308.36
2023-03-26T01:38:02.316Z,96304.30
2023-03-26T01:40:43.015Z,96302.15
2023-03-26T01:43:26.668Z,96302.52
2023-03-26T01:45:56.510Z,96299.83
2023-03-26T01:48:36.843Z,96308.34
2023-03-26T01:51:05.892Z,96303.43
2023-03-26T01:53:37.386Z,96306.15
2023-03-26T01:56:13.351Z,96308.17
2023-03-26T01:58:42.303Z,96304.80
2023-03-26T02:01:24.485Z,96313.75
2023-03-26T02:04:09.071Z,96317.62
2023-03-26T02:06:44.021Z,96316.96
2023-03-26T02:09:14.968Z,96314.06
2023-03-26T02:11:43.650Z,96320.70
2023-03-26T02:14:13.809Z,96314.89
2023-03-26T02:16:46.933Z,96315.71
2023-03-26T02:19:15.970Z,96318.18
2023-03-26T02:21:47.002Z,96317.73
2023-03-26T02:24:15.303Z,96321.34
2023-03-26T02:26:43.652Z,96320.75
2023-03-26T02:29:20.641Z,96319.45
2023-03-26T02:31:50.080Z,96319.14
2023-03-26T02:34:18.746Z,96322.06
2023-03-26T02:36:51.612Z,96321.05
2023-03-26T02:39:20.879Z,96325.83
2023-03-26T02:42:16.353Z,96330.56
2023-03-26T02:44:48.749Z,96328.85
2023-03-26T02:47:22.339Z,96333.64
2023-03-26T02:49:53.771Z,96336.18
2023-03-26T02:52:37.474Z,96339.56
2023-03-26T02:55:07.489Z,96337.66
2023-03-26T02:57:41.609Z,96340.63
2023-03-26T03:00:13.327Z,96336.42
2023-03-26T03:02:50.458Z,96343.80
2023-03-26T03:05:32.336Z,96341.86
2023-03-26T03:08:13.739Z,96340.77
2023-03-26T03:11:15.599Z,96338.28
2023-03-26T03:13:46.399Z,96345.36
2023-03-26T03:16:18.493Z,96342.61
2023-03-26T03:18:54.563Z,96338.30
2023-03-26T03:21:24.988Z,96337.44
2023-03-26T03:23:54.093Z,96334.39
2023-03-26T03:26:23.675Z,96332.22
2023-03-26T03:28:54.735Z,96336.93
2023-03-26T03:31:24.775Z,96333.12
2023-03-26T03:33:54.026Z,96331.84
2023-03-26T03:36:23.203Z,96333.73
2023-03-26T03:39:02.794Z,96337.51
2023-03-26T03:41:32.058Z,96336.48
2023-03-26T03:44:02.378Z,96338.23
2023-03-26T03:46:32.575Z,96342.11
2023-03-26T03:49:00.502Z,96341.57
2023-03-26T03:51:33.155Z,96339.67
2023-03-26T03:54:03.865Z,96341.33
2023-03-26T03:56:51.885Z,96343.48
2023-03-26T03:59:48.049Z,96342.13
2023-03-26T04:02:26.755Z,96340.02
2023-03-26T04:04:58.791Z,96344.19
2023-03-26T04:07:31.272Z,96344.14
2023-03-26T04:10:09.718Z,96340.41
2023-03-26T04:12:56.791Z,96352.30
2023-03-26T04:15:48.395Z,96358.23
2023-03-26T04:18:16.567Z,96366.90
2023-03-26T04:20:46.617Z,96369.82
2023-03-26T04:23:22.480Z,96366.63
2023-03-26T04:25:56.516Z,96365.48
2023-03-26T04:28:42.451Z,96362.04
2023-03-26T04:31:29.461Z,96367.54
2023-03-26T04:34:18.747Z,96369.91
2023-03-26T04:37:16.667Z,96371.99
2023-03-26T04:39:53.084Z,96374.11
2023-03-26T04:42:34.311Z,96375.77
2023-03-26T04:45:37.030Z,96379.50
2023-03-26T04:48:08.762Z,96379.89
2023-03-26T04:50:37.400Z,96377.78
2023-03-26T04:53:05.610Z,96374.02
2023-03-26T04:56:07.461Z,96375.45
2023-03-26T04:59:05.334Z,96375.86
2023-03-26T05:01:37.938Z,96383.94
2023-03-26T05:04:07.197Z,96388.77
2023-03-26T05:06:38.642Z,96388.44
2023-03-26T05:09:12.965Z,96394.50
2023-03-26T05:11:59.678Z,96394.92
2023-03-26T05:14:28.362Z,96399.66
2023-03-26T05:16:57.347Z,96403.92
2023-03-26T05:19:25.913Z,96404.85
2023-03-26T05:21:56.469Z,96415.33
2023-03-26T05:24:24.862Z,96411.71
2023-03-26T05:26:53.187Z,96413.60
2023-03-26T05:29:24.377Z,96413.85
2023-03-26T05:31:55.348Z,96413.92
2023-03-26T05:34:26.477Z,96413.44
2023-03-26T05:36:54.707Z,96405.34
2023-03-26T05:39:52.298Z,96401.23
2023-03-26T05:42:53.444Z,96399.69
2023-03-26T05:45:41.032Z,96398.95
2023-03-26T05:48:32.267Z,96395.82
2023-03-26T05:51:01.838Z,96394.16
2023-03-26T05:53:32.399Z,96395.45
2023-03-26T05:56:19.861Z,96393.58
2023-03-26T05:59:24.590Z,96393.63
2023-03-26T06:02:13.432Z,96394.63
2023-03-26T06:04:42.598Z,96395.48
2023-03-26T06:07:40.485Z,96394.67
2023-03-26T06:10:14.618Z,96400.17
2023-03-26T06:12:46.864Z,96394.04
2023-03-26T06:15:15.646Z,96389.01
2023-03-26T06:18:02.501Z,96393.26
2023-03-26T06:20:54.036Z,96391.73
2023-03-26T06:23:34.391Z,96391.03
2023-03-26T06:26:10.915Z,96389.70
2023-03-26T06:29:05.946Z,96394.23
2023-03-26T06:31:53.894Z,96398.09
2023-03-26T06:34:26.628Z,96402.70
2023-03-26T06:36:55.475Z,96403.16
2023-03-26T06:39:24.266Z,96403.64
2023-03-26T06:42:08.702Z,96398.64
2023-03-26T06:44:52.418Z,96402.55
2023-03-26T06:47:56.240Z,96408.26
2023-03-26T06:50:46.790Z,96405.08
2023-03-26T06:53:33.369Z,96403.10
2023-03-26T06:56:20.908Z,96402.49
2023-03-26T06:59:21.637Z,96409.00
2023-03-26T07:02:13.068Z,96407.32
2023-03-26T07:05:00.306Z,96408.74
2023-03-26T07:07:47.759Z,96413.77
2023-03-26T07:10:34.073Z,96415.86
2023-03-26T07:13:22.188Z,96415.17
2023-03-26T07:16:11.093Z,96418.45
2023-03-26T07:19:05.764Z,96419.42
2023-03-26T07:21:36.694Z,96425.10
2023-03-26T07:24:20.356Z,96426.34
2023-03-26T07:27:10.022Z,96430.52
2023-03-26T07:29:45.757Z,96435.96
2023-03-26T07:32:51.766Z,96434.85
2023-03-26T07:35:50.956Z,96436.77
2023-03-26T07:39:04.266Z,96434.73
2023-03-26T07:42:22.726Z,96439.95
2023-03-26T07:45:10.558Z,96442.02
2023-03-26T07:48:09.474Z,96442.90
2023-03-26T07:51:02.999Z,96436.54
2023-03-26T07:53:50.266Z,96427.73
2023-03-26T07:56:43.530Z,96426.16
2023-03-26T07:59:29.297Z,96421.29
2023-03-26T08:02:23.492Z,96415.97
2023-03-26T08:05:19.067Z,96414.82
2023-03-26T08:08:18.653Z,96411.48
2023-03-26T08:11:33.518Z,96413.08
2023-03-26T08:14:17.413Z,96420.68
2023-03-26T08:16:56.092Z,96415.09
2023-03-26T08:19:37.778Z,96419.52
2023-03-26T08:22:13.835Z,96417.55
2023-03-26T08:25:07.937Z,96414.38
2023-03-26T08:27:47.958Z,96410.04
2023-03-26T08:30:16.704Z,96404.55
2023-03-26T08:33:03.616Z,96406.79
2023-03-26T08:35:33.454Z,96412.03
2023-03-26T08:38:01.987Z,96412.59
2023-03-26T08:40:49.284Z,96402.41
2023-03-26T08:43:26.173Z,96409.89
2023-03-26T08:46:04.287Z,96400.11
2023-03-26T08:48:58.636Z,96399.38
2023-03-26T08:51:45.834Z,96401.09
2023-03-26T08:54:33.588Z,96401.93
2023-03-26T08:57:11.524Z,96396.04
2023-03-26T09:00:00.262Z,96395.05
2023-03-26T09:02:41.000Z,96392.25
2023-03-26T09:05:21.530Z,96405.17
2023-03-26T09:07:50.223Z,96409.10
2023-03-26T09:10:24.678Z,96400.68
2023-03-26T09:12:56.084Z,96405.92
2023-03-26T09:15:24.414Z,96403.86
2023-03-26T09:18:11.049Z,96406.77
2023-03-26T09:20:50.553Z,96414.98
2023-03-26T09:23:45.329Z,96411.34
2023-03-26T09:26:32.820Z,96406.55
2023-03-26T09:29:15.760Z,96412.06
2023-03-26T09:31:58.389Z,96414.84
2023-03-26T09:34:31.295Z,96408.86
2023-03-26T09:37:06.517Z,96408.95
2023-03-26T09:39:54.005Z,96412.37
2023-03-26T09:42:23.927Z,96400.09
2023-03-26T09:45:18.301Z,96394.19
2023-03-26T09:48:05.698Z,96399.96
2023-03-26T09:50:43.500Z,96391.39
2023-03-26T09:53:26.967Z,96395.23
2023-03-26T09:56:13.736Z,96387.78
2023-03-26T09:58:49.975Z,96384.36
2023-03-26T10:01:26.039Z,96385.45
2023-03-26T10:04:13.594Z,96380.71
2023-03-26T10:06:52.100Z,96382.53
2023-03-26T10:09:42.739Z,96383.64
2023-03-26T10:12:40.476Z,96385.06
2023-03-26T10:15:25.190Z,96382.55
2023-03-26T10:17:53.746Z,96379.11
2023-03-26T10:20:22.960Z,96366.09
2023-03-26T10:22:51.463Z,96366.92
2023-03-26T10:25:38.745Z,96377.86
2023-03-26T10:28:09.718Z,96376.45
2023-03-26T10:30:48.033Z,96366.25
2023-03-26T10:33:30.769Z,96374.40
2023-03-26T10:36:21.382Z,96378.73
2023-03-26T10:39:05.068Z,96378.87
2023-03-26T10:41:51.680Z,96374.77
2023-03-26T10:44:48.812Z,96374.42
2023-03-26T10:47:20.284Z,96365.47
2023-03-26T10:49:52.393Z,96363.62
2023-03-26T10:52:25.500Z,96372.82
2023-03-26T10:55:09.711Z,96359.20
2023-03-26T10:57:53.521Z,96362.60
2023-03-26T11:00:26.487Z,96359.61
2023-03-26T11:03:00.654Z,96355.64
2023-03-26T11:05:32.746Z,96363.20
2023-03-26T11:08:12.182Z,96353.00
2023-03-26T11:10:46.373Z,96360.59
2023-03-26T11:13:19.734Z,96354.89
2023-03-26T11:16:00.801Z,96361.91
2023-03-26T11:18:35.941Z,96358.09
2023-03-26T11:21:19.207Z,96364.33
2023-03-26T11:23:48.815Z,96354.81
2023-03-26T11:26:45.048Z,96364.17
2023-03-26T11:29:37.260Z,96348.23
2023-03-26T11:32:11.826Z,96343.44
2023-03-26T11:34:40.151Z,96355.27
2023-03-26T11:37:21.003Z,96339.89
2023-03-26T11:39:56.725Z,96347.31
2023-03-26T11:42:25.843Z,96361.65
2023-03-26T11:44:57.479Z,96345.57
2023-03-26T11:47:31.033Z,96348.19
2023-03-26T11:50:00.408Z,96351.41
2023-03-26T11:52:28.463Z,96358.09
2023-03-26T11:54:59.543Z,96342.10
2023-03-26T11:57:30.862Z,96344.67
2023-03-26T12:00:11.026Z,96343.40
2023-03-26T12:02:42.981Z,96353.16
2023-03-26T12:05:13.821Z,96345.30
2023-03-26T12:07:46.936Z,96346.91
2023-03-26T12:10:47.560Z,96339.24
2023-03-26T12:13:29.549Z,96338.98
2023-03-26T12:15:59.466Z,96344.20
2023-03-26T12:18:28.373Z,96342.02
2023-03-26T12:21:05.472Z,96338.89
2023-03-26T12:23:38.853Z,96331.03
2023-03-26T12:26:18.112Z,96332.81
2023-03-26T12:28:49.865Z,96332.57
2023-03-26T12:31:19.431Z,96326.55
2023-03-26T12:34:06.415Z,96335.67
2023-03-26T12:36:36.087Z,96326.66
2023-03-26T12:40:08.662Z,96324.60
2023-03-26T12:44:47.168Z,96324.48
2023-03-26T12:45:23.911Z,96317.02
2023-03-26T12:47:58.377Z,96315.55
2023-03-26T12:50:42.840Z,96306.63
2023-03-26T12:53:14.929Z,96306.63
2023-03-26T12:56:02.361Z,96303.69
2023-03-26T12:58:38.330Z,96295.36
2023-03-26T13:01:25.953Z,96287.69
2023-03-26T13:03:56.889Z,96290.83
2023-03-26T13:07:00.426Z,96287.91
2023-03-26T13:10:03.379Z,96291.13
2023-03-26T13:12:32.251Z,96296.15
2023-03-26T13:15:18.948Z,96294.14
2023-03-26T13:17:47.196Z,96287.08
2023-03-26T13:20:29.388Z,96290.45
2023-03-26T13:23:03.110Z,96289.82
2023-03-26T13:25:34.337Z,96292.92
2023-03-26T13:28:05.029Z,96285.55
2023-03-26T13:30:52.066Z,96276.00
2023-03-26T13:33:43.495Z,96271.04
2023-03-26T13:36:24.575Z,96269.68
2023-03-26T13:39:12.315Z,96269.25
2023-03-26T13:41:51.077Z,96260.85
2023-03-26T13:44:34.133Z,96254.58
2023-03-26T13:47:09.611Z,96249.87
2023-03-26T13:49:41.112Z,96250.39
2023-03-26T13:52:27.185Z,96242.73
2023-03-26T13:55:07.464Z,96241.12
2023-03-26T13:57:37.864Z,96241.44
2023-03-26T14:00:12.844Z,96239.05
2023-03-26T14:02:42.658Z,96238.11
2023-03-26T14:05:14.022Z,96226.02
2023-03-26T14:07:49.069Z,96226.40
2023-03-26T14:10:22.437Z,96225.55
2023-03-26T14:12:56.441Z,96222.64
2023-03-26T14:15:29.990Z,96220.13
2023-03-26T14:17:57.974Z,96212.52
2023-03-26T14:20:44.875Z,96213.58
2023-03-26T14:23:24.837Z,96208.89
2023-03-26T14:26:11.924Z,96203.33
2023-03-26T14:28:58.558Z,96211.94
2023-03-26T14:31:29.142Z,96213.90
2023-03-26T14:34:16.349Z,96218.89
2023-03-26T14:37:06.307Z,96225.73
2023-03-26T14:39:40.693Z,96221.19
2023-03-26T14:42:32.073Z,96221.95
2023-03-26T14:45:01.484Z,96216.95
2023-03-26T14:47:30.902Z,96219.80
2023-03-26T14:50:20.414Z,96219.82
2023-03-26T14:52:51.731Z,96220.91
2023-03-26T14:55:41.288Z,96215.21
2023-03-26T14:58:29.158Z,96217.95
2023-03-26T15:01:13.516Z,96211.16
2023-03-26T15:03:48.946Z,96214.98
2023-03-26T15:06:35.953Z,96213.56
2023-03-26T15:09:22.846Z,96218.71
2023-03-26T15:12:12.298Z,96218.36
2023-03-26T15:14:41.674Z,96222.32
2023-03-26T15:17:29.016Z,96222.13
2023-03-26T15:20:06.922Z,96214.10
2023-03-26T15:22:43.798Z,96217.45
2023-03-26T15:25:21.251Z,96208.71
2023-03-26T15:28:09.868Z,96203.13
2023-03-26T15:30:44.522Z,96196.54
2023-03-26T15:33:34.357Z,96199.28
2023-03-26T15:36:16.129Z,96195.73
2023-03-26T15:39:03.061Z,96197.32
2023-03-26T15:41:49.885Z,96197.23
2023-03-26T15:44:23.829Z,96196.23
2023-03-26T15:47:17.695Z,96198.23
2023-03-26T15:49:48.605Z,96197.44
2023-03-26T15:52:31.403Z,96200.04
2023-03-26T15:55:02.722Z,96202.94
2023-03-26T15:57:34.703Z,96205.45
2023-03-26T16:00:15.442Z,96201.78
2023-03-26T16:02:43.641Z,96199.14
2023-03-26T16:05:36.901Z,96194.71
2023-03-26T16:08:08.190Z,96194.38
2023-03-26T16:10:44.898Z,96197.80
2023-03-26T16:13:22.819Z,96196.06
2023-03-26T16:16:14.478Z,96191.53
2023-03-26T16:18:43.115Z,96189.83
2023-03-26T16:21:32.376Z,96191.38
2023-03-26T16:24:12.247Z,96190.40
2023-03-26T16:26:43.694Z,96187.77
2023-03-26T16:29:18.378Z,96189.26
2023-03-26T16:32:07.254Z,96195.19
2023-03-26T16:34:45.153Z,96199.91
2023-03-26T16:37:38.633Z,96208.93
2023-03-26T16:40:22.542Z,96215.23
2023-03-26T16:43:08.539Z,96214.22
2023-03-26T16:45:48.264Z,96216.58
2023-03-26T16:48:37.530Z,96217.12
2023-03-26T16:51:08.592Z,96218.70
2023-03-26T16:53:42.809Z,96219.38
2023-03-26T16:56:28.108Z,96225.10
2023-03-26T16:59:00.481Z,96227.33
2023-03-26T17:01:28.847Z,96226.27
2023-03-26T17:04:03.172Z,96224.65
2023-03-26T17:06:31.948Z,96229.79
2023-03-26T17:09:19.403Z,96237.63
2023-03-26T17:12:06.168Z,96240.55
2023-03-26T17:14:54.550Z,96245.75
2023-03-26T17:17:31.463Z,96249.87
2023-03-26T17:20:23.283Z,96252.15
2023-03-26T17:22:58.217Z,96257.89
2023-03-26T17:25:44.482Z,96258.91
2023-03-26T17:28:27.438Z,96260.77
2023-03-26T17:31:17.617Z,96264.81
2023-03-26T17:33:46.042Z,96258.16
2023-03-26T17:36:30.853Z,96253.98
2023-03-26T17:39:01.043Z,96252.73
2023-03-26T17:41:48.146Z,96251.27
2023-03-26T17:44:36.768Z,96250.05
2023-03-26T17:47:06.788Z,96244.65
2023-03-26T17:49:35.510Z,96246.91
2023-03-26T17:52:15.401Z,96245.48
2023-03-26T17:54:46.516Z,96238.83
2023-03-26T17:57:44.290Z,96238.18
2023-03-26T18:00:22.986Z,96237.02
2023-03-26T18:02:54.779Z,96238.13
2023-03-26T18:05:26.677Z,96228.14
2023-03-26T18:08:20.800Z,96227.23
2023-03-26T18:10:52.502Z,96227.73
2023-03-26T18:13:39.284Z,96227.70
2023-03-26T18:16:28.330Z,96230.41
2023-03-26T18:19:02.411Z,96227.86
2023-03-26T18:21:38.701Z,96231.30
2023-03-26T18:24:13.846Z,96230.86
2023-03-26T18:26:47.159Z,96229.99
2023-03-26T18:29:24.089Z,96225.28
2023-03-26T18:31:58.395Z,96222.81
2023-03-26T18:34:29.226Z,96225.04
2023-03-26T18:37:11.251Z,96225.29
2023-03-26T18:39:39.211Z,96222.20
2023-03-26T18:42:22.566Z,96222.42
2023-03-26T18:44:53.372Z,96219.70
2023-03-26T18:47:22.585Z,96218.52
2023-03-26T18:49:57.589Z,96213.40
2023-03-26T18:52:27.568Z,96207.48
2023-03-26T18:54:57.169Z,96203.45
2023-03-26T18:57:26.349Z,96200.11
2023-03-26T18:59:56.654Z,96195.28
2023-03-26T19:02:25.438Z,96193.15
2023-03-26T19:04:54.473Z,96196.69
2023-03-26T19:07:25.031Z,96201.98
2023-03-26T19:09:56.531Z,96202.51
2023-03-26T19:12:33.206Z,96200.25
2023-03-26T19:15:13.189Z,96199.66
2023-03-26T19:17:44.493Z,96194.87
2023-03-26T19:20:21.719Z,96195.87
2023-03-26T19:22:50.201Z,96186.16
2023-03-26T19:25:23.371Z,96179.48
2023-03-26T19:27:52.563Z,96178.90
2023-03-26T19:30:32.885Z,96179.59
2023-03-26T19:33:13.075Z,96176.20
2023-03-26T19:35:43.386Z,96170.66
2023-03-26T19:38:28.253Z,96167.70
2023-03-26T19:40:58.033Z,96170.17
2023-03-26T19:43:27.123Z,96168.63
2023-03-26T19:46:00.016Z,96165.08
2023-03-26T19:48:45.528Z,96154.90
2023-03-26T19:51:22.126Z,96156.03
2023-03-26T19:53:53.807Z,96155.33
2023-03-26T19:56:23.078Z,96153.84
2023-03-26T19:58:51.411Z,96149.34
2023-03-26T20:01:22.965Z,96144.86
2023-03-26T20:03:54.477Z,96145.23
2023-03-26T20:06:33.991Z,96143.98
2023-03-26T20:09:06.390Z,96133.67
2023-03-26T20:11:38.134Z,96133.36
2023-03-26T20:14:26.272Z,96135.30
2023-03-26T20:16:55.627Z,96134.81
2023-03-26T20:19:25.146Z,96137.60
2023-03-26T20:21:54.749Z,96133.07
2023-03-26T20:24:24.863Z,96133.74
2023-03-26T20:26:53.570Z,96136.05
2023-03-26T20:29:24.085Z,96135.20
2023-03-26T20:31:52.737Z,96135.06
2023-03-26T20:34:22.708Z,96134.58
2023-03-26T20:37:01.362Z,96130.88
2023-03-26T20:39:30.338Z,96122.64
2023-03-26T20:41:59.294Z,96118.50
2023-03-26T20:44:28.304Z,96112.86
2023-03-26T20:46:59.406Z,96112.11
2023-03-26T20:49:29.611Z,96107.38
2023-03-26T20:51:57.619Z,96106.07
2023-03-26T20:54:30.388Z,96105.29
2023-03-26T20:56:58.442Z,96096.58
2023-03-26T20:59:27.790Z,96098.08
2023-03-26T21:01:57.516Z,96095.45
2023-03-26T21:04:27.455Z,96089.15
2023-03-26T21:07:06.709Z,96090.77
2023-03-26T21:09:39.672Z,96093.52
2023-03-26T21:12:09.823Z,96093.29
2023-03-26T21:14:41.260Z,96089.08
2023-03-26T21:17:29.761Z,96085.33
2023-03-26T21:20:06.354Z,96080.14
2023-03-26T21:22:40.923Z,96080.73
2023-03-26T21:25:27.182Z,96078.52
2023-03-26T21:28:14.756Z,96074.09
2023-03-26T21:30:43.274Z,96074.21
2023-03-26T21:33:11.567Z,96069.22
2023-03-26T21:35:40.392Z,96062.48
2023-03-26T21:38:09.456Z,96060.98
2023-03-26T21:40:42.237Z,96065.43
2023-03-26T21:43:12.717Z,96071.30
2023-03-26T21:45:41.561Z,96074.56
2023-03-26T21:48:11.061Z,96068.14
2023-03-26T21:50:39.677Z,96067.05
2023-03-26T21:53:08.336Z,96063.04
2023-03-26T21:55:44.298Z,96059.73
2023-03-26T21:58:18.530Z,96050.86
2023-03-26T22:01:05.774Z,96046.39
2023-03-26T22:03:53.139Z,96037.79
2023-03-26T22:06:27.867Z,96034.30
2023-03-26T22:08:57.458Z,96025.39
2023-03-26T22:11:26.023Z,96017.58
2023-03-26T22:13:55.692Z,96009.88
2023-03-26T22:16:26.488Z,96010.82
2023-03-26T22:18:54.423Z,96001.89
2023-03-26T22:21:23.560Z,95994.19
2023-03-26T22:23:55.032Z,95990.88
2023-03-26T22:26:24.173Z,95986.84
2023-03-26T22:28:52.194Z,95980.76
2023-03-26T22:31:20.286Z,95978.86
2023-03-26T22:33:48.484Z,95975.82
2023-03-26T22:36:23.453Z,95975.10
2023-03-26T22:38:53.981Z,95972.09
2023-03-26T22:41:22.939Z,95969.61
2023-03-26T22:43:53.203Z,95969.27
2023-03-26T22:46:22.034Z,95963.42
2023-03-26T22:48:51.309Z,95960.52
2023-03-26T22:51:19.899Z,95952.96
2023-03-26T22:53:49.474Z,95949.14
2023-03-26T22:56:18.916Z,95948.18
2023-03-26T22:58:48.116Z,95944.16
2023-03-26T23:01:18.174Z,95943.76
2023-03-26T23:03:46.736Z,95936.84
2023-03-26T23:06:15.418Z,95928.34
2023-03-26T23:08:43.470Z,95924.46
2023-03-26T23:11:13.782Z,95928.52
2023-03-26T23:13:42.779Z,95931.50
2023-03-26T23:16:11.357Z,95931.38
2023-03-26T23:18:39.766Z,95927.00
2023-03-26T23:21:12.971Z,95922.05
2023-03-26T23:23:41.494Z,95917.42
2023-03-26T23:26:09.496Z,95914.40
2023-03-26T23:28:38.330Z,95912.76
2023-03-26T23:31:07.353Z,95911.39
2023-03-26T23:33:36.629Z,95911.40
2023-03-26T23:36:09.183Z,95909.77
2023-03-26T23:38:43.399Z,95903.51
2023-03-26T23:41:16.089Z,95903.70
2023-03-26T23:43:54.138Z,95905.97
2023-03-26T23:46:24.914Z,95906.29
2023-03-26T23:48:53.158Z,95900.20
2023-03-26T23:51:21.492Z,95904.96
2023-03-26T23:53:49.896Z,95905.15
2023-03-26T23:56:17.993Z,95899.71
2023-03-26T23:58:47.558Z,95895.02
